Time;durP1;ratioP1;P1;durP2;ratioP2;P2;SDS_P1;SDS_P2;PMS_P1;PMS_P2;Temp;Humidity;BMP_temperature;BMP_pressure;BME280_temperature;BME280_humidity;BME280_pressure;Samples;Min_cycle;Max_cycle;Signal;HPM_P1;HPM_P2
2022/08/06 00:00:47;;;;;;;;;;;22.40;46.80;;;;;;482536;247;1290;-52
2022/08/06 00:02:48;;;;;;;;;;;22.30;46.70;;;;;;482556;247;1083;-52
2022/08/06 00:04:49;;;;;;;;;;;22.30;46.80;;;;;;482117;247;1079;-52
2022/08/06 00:06:51;;;;;;;;;;;22.40;46.80;;;;;;482278;247;1092;-51
2022/08/06 00:08:52;;;;;;;;;;;22.40;46.90;;;;;;482140;247;1125;-51
2022/08/06 00:10:54;;;;;;;;;;;22.40;46.80;;;;;;482189;247;1388;-51
2022/08/06 00:12:55;;;;;;;;;;;22.40;46.90;;;;;;482549;247;1134;-51
2022/08/06 00:14:56;;;;;;;;;;;22.40;46.90;;;;;;482212;247;1254;-51
2022/08/06 00:16:57;;;;;;;;;;;22.40;46.80;;;;;;482586;247;1122;-51
2022/08/06 00:18:59;;;;;;;;;;;22.40;46.90;;;;;;482158;247;2193;-51
2022/08/06 00:21:00;;;;;;;;;;;22.40;46.90;;;;;;482542;247;1366;-51
2022/08/06 00:23:02;;;;;;;;;;;22.40;46.90;;;;;;482233;246;1237;-52
2022/08/06 00:25:03;;;;;;;;;;;22.40;46.90;;;;;;482261;247;1175;-51
2022/08/06 00:27:05;;;;;;;;;;;22.40;46.90;;;;;;482584;247;1226;-51
2022/08/06 00:29:06;;;;;;;;;;;22.40;47.00;;;;;;482151;247;1230;-51
2022/08/06 00:31:08;;;;;;;;;;;22.40;47.00;;;;;;482597;247;1142;-51
2022/08/06 00:33:09;;;;;;;;;;;22.40;47.10;;;;;;482542;247;1186;-50
2022/08/06 00:35:10;;;;;;;;;;;22.40;47.10;;;;;;482387;247;1056;-51
2022/08/06 00:37:11;;;;;;;;;;;22.30;47.20;;;;;;482178;247;1066;-51
2022/08/06 00:39:13;;;;;;;;;;;22.30;47.20;;;;;;482127;247;2200;-50
2022/08/06 00:41:14;;;;;;;;;;;22.30;47.20;;;;;;482154;247;1311;-51
2022/08/06 00:43:16;;;;;;;;;;;22.40;47.20;;;;;;482559;247;1147;-50
2022/08/06 00:45:17;;;;;;;;;;;22.30;47.20;;;;;;482152;247;1183;-51
2022/08/06 00:47:18;;;;;;;;;;;22.30;47.20;;;;;;482430;247;1363;-51
2022/08/06 00:49:20;;;;;;;;;;;22.30;47.30;;;;;;482514;247;1158;-51
2022/08/06 00:51:21;;;;;;;;;;;22.30;47.30;;;;;;482448;247;1316;-51
2022/08/06 00:53:22;;;;;;;;;;;22.30;47.30;;;;;;482147;247;1165;-51
2022/08/06 00:55:24;;;;;;;;;;;22.30;47.30;;;;;;482446;247;1353;-50
2022/08/06 00:57:25;;;;;;;;;;;22.30;47.40;;;;;;482619;247;1213;-51
2022/08/06 00:59:26;;;;;;;;;;;22.30;47.40;;;;;;482350;247;2193;-51
2022/08/06 01:01:27;;;;;;;;;;;22.30;47.50;;;;;;482355;247;1166;-51
2022/08/06 01:03:29;;;;;;;;;;;22.30;47.50;;;;;;482617;247;1168;-51
2022/08/06 01:05:30;;;;;;;;;;;22.30;47.50;;;;;;482518;247;1260;-51
2022/08/06 01:07:31;;;;;;;;;;;22.30;47.60;;;;;;482097;247;1161;-51
2022/08/06 01:09:33;;;;;;;;;;;22.30;47.60;;;;;;482165;247;1186;-51
2022/08/06 01:11:34;;;;;;;;;;;22.20;47.60;;;;;;482131;247;1449;-51
2022/08/06 01:13:35;;;;;;;;;;;22.30;47.60;;;;;;482616;247;1218;-51
2022/08/06 01:15:37;;;;;;;;;;;22.30;47.60;;;;;;482590;247;1277;-51
2022/08/06 01:17:38;;;;;;;;;;;22.30;47.60;;;;;;482505;247;1215;-51
2022/08/06 01:19:39;;;;;;;;;;;22.30;47.60;;;;;;482605;247;2204;-51
2022/08/06 01:21:41;;;;;;;;;;;22.30;47.70;;;;;;482266;247;1340;-51
2022/08/06 01:23:42;;;;;;;;;;;22.30;47.70;;;;;;482499;247;1238;-51
2022/08/06 01:25:43;;;;;;;;;;;22.20;47.70;;;;;;482307;247;1313;-51
2022/08/06 01:27:45;;;;;;;;;;;22.30;47.70;;;;;;482156;247;1221;-52
2022/08/06 01:29:46;;;;;;;;;;;22.30;47.70;;;;;;482476;247;1044;-51
2022/08/06 01:31:47;;;;;;;;;;;22.30;47.70;;;;;;482206;247;963;-51
2022/08/06 01:33:49;;;;;;;;;;;22.30;47.80;;;;;;482624;247;1172;-51
2022/08/06 01:35:50;;;;;;;;;;;22.30;47.60;;;;;;482372;247;1086;-51
2022/08/06 01:37:52;;;;;;;;;;;22.30;47.60;;;;;;482647;247;1047;-51
2022/08/06 01:39:53;;;;;;;;;;;22.30;47.60;;;;;;482640;247;2121;-51
2022/08/06 01:41:54;;;;;;;;;;;22.30;47.70;;;;;;482152;247;1287;-51
2022/08/06 01:43:56;;;;;;;;;;;22.30;47.70;;;;;;482357;247;1067;-51
2022/08/06 01:45:57;;;;;;;;;;;22.30;47.70;;;;;;482585;247;1258;-52
2022/08/06 01:47:58;;;;;;;;;;;22.30;47.70;;;;;;482174;247;1252;-50
2022/08/06 01:50:00;;;;;;;;;;;22.30;47.70;;;;;;482554;247;1295;-51
2022/08/06 01:52:01;;;;;;;;;;;22.30;47.70;;;;;;482564;247;1282;-51
2022/08/06 01:54:02;;;;;;;;;;;22.30;47.70;;;;;;482546;247;1178;-52
2022/08/06 01:56:04;;;;;;;;;;;22.30;47.70;;;;;;482443;247;1267;-52
2022/08/06 01:58:05;;;;;;;;;;;22.40;47.70;;;;;;482613;247;1051;-51
2022/08/06 02:00:06;;;;;;;;;;;22.30;47.70;;;;;;482513;247;2193;-52
2022/08/06 02:02:08;;;;;;;;;;;22.30;47.70;;;;;;482191;247;1155;-51
2022/08/06 02:04:09;;;;;;;;;;;22.30;47.70;;;;;;482129;247;1020;-51
2022/08/06 02:06:10;;;;;;;;;;;22.30;47.70;;;;;;482199;247;1116;-51
2022/08/06 02:08:12;;;;;;;;;;;22.30;47.70;;;;;;482102;247;1080;-51
2022/08/06 02:10:13;;;;;;;;;;;22.40;47.80;;;;;;482215;247;1085;-51
2022/08/06 02:12:14;;;;;;;;;;;22.40;47.80;;;;;;482165;247;1153;-51
2022/08/06 02:14:16;;;;;;;;;;;22.40;47.80;;;;;;482230;247;1045;-50
2022/08/06 02:16:17;;;;;;;;;;;22.40;47.80;;;;;;482615;247;1201;-52
2022/08/06 02:18:18;;;;;;;;;;;22.40;47.80;;;;;;482172;247;1053;-51
2022/08/06 02:20:20;;;;;;;;;;;22.40;47.80;;;;;;482576;247;2196;-51
2022/08/06 02:22:21;;;;;;;;;;;22.40;47.80;;;;;;482176;247;1080;-51
2022/08/06 02:24:23;;;;;;;;;;;22.40;47.80;;;;;;482023;247;1145;-51
2022/08/06 02:26:24;;;;;;;;;;;22.40;47.90;;;;;;482440;247;1203;-51
2022/08/06 02:28:26;;;;;;;;;;;22.30;47.90;;;;;;482601;247;1034;-51
2022/08/06 02:30:27;;;;;;;;;;;22.30;47.90;;;;;;482444;247;1049;-51
2022/08/06 02:32:28;;;;;;;;;;;22.30;47.90;;;;;;482340;247;1075;-50
2022/08/06 02:34:30;;;;;;;;;;;22.30;48.00;;;;;;482598;247;1098;-51
2022/08/06 02:36:31;;;;;;;;;;;22.30;48.00;;;;;;482116;247;1087;-51
2022/08/06 02:38:32;;;;;;;;;;;22.30;48.00;;;;;;482196;247;2121;-51
2022/08/06 02:40:34;;;;;;;;;;;22.30;48.00;;;;;;482375;247;1222;-51
2022/08/06 02:42:35;;;;;;;;;;;22.30;48.00;;;;;;482225;247;1316;-51
2022/08/06 02:44:37;;;;;;;;;;;22.30;48.00;;;;;;482140;247;1160;-51
2022/08/06 02:46:38;;;;;;;;;;;22.40;48.10;;;;;;482574;247;1216;-51
2022/08/06 02:48:39;;;;;;;;;;;22.30;48.00;;;;;;482139;247;1216;-51
2022/08/06 02:50:41;;;;;;;;;;;22.30;48.10;;;;;;482589;247;1122;-51
2022/08/06 02:52:42;;;;;;;;;;;22.30;48.10;;;;;;482588;247;1329;-51
2022/08/06 02:54:43;;;;;;;;;;;22.30;48.10;;;;;;482171;247;1258;-51
2022/08/06 02:56:45;;;;;;;;;;;22.30;48.20;;;;;;482437;247;1219;-51
2022/08/06 02:58:46;;;;;;;;;;;22.30;48.10;;;;;;482172;247;2192;-51
2022/08/06 03:00:47;;;;;;;;;;;22.30;48.20;;;;;;482153;247;1037;-51
2022/08/06 03:02:49;;;;;;;;;;;22.30;48.20;;;;;;482372;247;1417;-51
2022/08/06 03:04:50;;;;;;;;;;;22.30;48.20;;;;;;482567;247;1274;-52
2022/08/06 03:06:51;;;;;;;;;;;22.30;48.30;;;;;;482611;247;1229;-51
2022/08/06 03:08:53;;;;;;;;;;;22.30;48.30;;;;;;482429;247;1078;-51
2022/08/06 03:10:54;;;;;;;;;;;22.20;48.30;;;;;;482637;247;1084;-51
2022/08/06 03:12:55;;;;;;;;;;;22.30;48.30;;;;;;482258;247;1217;-51
2022/08/06 03:14:57;;;;;;;;;;;22.30;48.30;;;;;;482617;247;1198;-52
2022/08/06 03:16:58;;;;;;;;;;;22.30;48.30;;;;;;482653;247;1261;-51
2022/08/06 03:18:59;;;;;;;;;;;22.30;48.40;;;;;;482441;247;2132;-51
2022/08/06 03:21:01;;;;;;;;;;;22.30;48.30;;;;;;482304;247;1229;-51
2022/08/06 03:23:02;;;;;;;;;;;22.30;48.30;;;;;;482157;247;1232;-51
2022/08/06 03:25:03;;;;;;;;;;;22.30;48.30;;;;;;482541;247;1245;-51
2022/08/06 03:27:05;;;;;;;;;;;22.30;48.30;;;;;;482140;247;1269;-51
2022/08/06 03:29:06;;;;;;;;;;;22.30;48.30;;;;;;482175;247;1348;-51
2022/08/06 03:31:08;;;;;;;;;;;22.30;48.30;;;;;;482166;247;1222;-51
2022/08/06 03:33:09;;;;;;;;;;;22.30;48.30;;;;;;482248;247;1274;-51
2022/08/06 03:35:10;;;;;;;;;;;22.30;48.20;;;;;;482528;247;1240;-51
2022/08/06 03:37:11;;;;;;;;;;;22.30;48.30;;;;;;482152;247;1257;-51
2022/08/06 03:39:13;;;;;;;;;;;22.30;48.30;;;;;;482224;247;2193;-51
2022/08/06 03:41:14;;;;;;;;;;;22.30;48.30;;;;;;482147;247;1208;-51
2022/08/06 03:43:16;;;;;;;;;;;22.30;48.30;;;;;;482156;247;1280;-52
2022/08/06 03:45:17;;;;;;;;;;;22.30;48.20;;;;;;482147;247;1196;-51
2022/08/06 03:47:18;;;;;;;;;;;22.40;48.30;;;;;;482503;247;1044;-51
2022/08/06 03:49:19;;;;;;;;;;;22.30;48.30;;;;;;482616;247;1073;-51
2022/08/06 03:51:21;;;;;;;;;;;22.40;48.30;;;;;;482314;247;1073;-52
2022/08/06 03:53:22;;;;;;;;;;;22.40;48.30;;;;;;482219;247;1105;-51
2022/08/06 03:55:24;;;;;;;;;;;22.30;48.30;;;;;;482483;247;1071;-50
2022/08/06 03:57:25;;;;;;;;;;;22.40;48.40;;;;;;482460;247;1127;-50
2022/08/06 03:59:26;;;;;;;;;;;22.40;48.30;;;;;;482567;247;2125;-52
2022/08/06 04:01:27;;;;;;;;;;;22.40;48.30;;;;;;482596;247;1063;-51
2022/08/06 04:03:29;;;;;;;;;;;22.40;48.30;;;;;;482444;247;1103;-51
2022/08/06 04:05:30;;;;;;;;;;;22.40;48.30;;;;;;482297;247;1191;-51
2022/08/06 04:07:31;;;;;;;;;;;22.40;48.40;;;;;;482525;247;1192;-51
2022/08/06 04:09:33;;;;;;;;;;;22.40;48.40;;;;;;482177;247;1531;-50
2022/08/06 04:11:34;;;;;;;;;;;22.40;48.40;;;;;;482213;247;1305;-50
2022/08/06 04:13:36;;;;;;;;;;;22.40;48.40;;;;;;482183;247;1216;-51
2022/08/06 04:15:37;;;;;;;;;;;22.40;48.40;;;;;;482402;247;1348;-52
2022/08/06 04:17:38;;;;;;;;;;;22.40;48.40;;;;;;482159;247;1226;-51
2022/08/06 04:19:40;;;;;;;;;;;22.40;48.40;;;;;;482232;246;2133;-51
2022/08/06 04:21:41;;;;;;;;;;;22.40;48.40;;;;;;482096;247;1305;-51
2022/08/06 04:23:42;;;;;;;;;;;22.40;48.40;;;;;;482503;247;1088;-51
2022/08/06 04:25:44;;;;;;;;;;;22.40;48.50;;;;;;482427;247;1404;-51
2022/08/06 04:27:45;;;;;;;;;;;22.40;48.50;;;;;;482432;247;1175;-51
2022/08/06 04:29:46;;;;;;;;;;;22.40;48.50;;;;;;482461;247;1083;-51
2022/08/06 04:31:47;;;;;;;;;;;22.40;48.50;;;;;;482563;247;1259;-51
2022/08/06 04:33:49;;;;;;;;;;;22.40;48.60;;;;;;482312;247;1096;-52
2022/08/06 04:35:50;;;;;;;;;;;22.40;48.60;;;;;;482138;247;1455;-50
2022/08/06 04:37:51;;;;;;;;;;;22.30;48.60;;;;;;482582;247;1350;-51
2022/08/06 04:39:53;;;;;;;;;;;22.30;48.70;;;;;;482381;247;2129;-51
2022/08/06 04:41:54;;;;;;;;;;;22.40;48.70;;;;;;482297;247;1291;-51
2022/08/06 04:43:55;;;;;;;;;;;22.30;48.60;;;;;;482208;247;1175;-51
2022/08/06 04:45:57;;;;;;;;;;;22.30;48.70;;;;;;482186;247;1067;-51
2022/08/06 04:47:58;;;;;;;;;;;22.30;48.70;;;;;;482168;247;1199;-51
2022/08/06 04:49:59;;;;;;;;;;;22.30;48.70;;;;;;482491;247;1104;-51
2022/08/06 04:52:01;;;;;;;;;;;22.30;48.70;;;;;;482622;247;1067;-50
2022/08/06 04:54:02;;;;;;;;;;;22.30;48.70;;;;;;482630;247;1056;-51
2022/08/06 04:56:03;;;;;;;;;;;22.30;48.80;;;;;;482564;247;1141;-51
2022/08/06 04:58:05;;;;;;;;;;;22.30;48.80;;;;;;478202;247;1320;-51
2022/08/06 05:00:06;;;;;;;;;;;22.30;48.80;;;;;;471483;252;2196;-51
2022/08/06 05:02:07;;;;;;;;;;;22.30;48.80;;;;;;471415;251;1015;-50
2022/08/06 05:04:09;;;;;;;;;;;22.30;48.80;;;;;;481280;247;1100;-51
2022/08/06 05:06:10;;;;;;;;;;;22.30;48.80;;;;;;482171;247;1553;-51
2022/08/06 05:08:11;;;;;;;;;;;22.30;48.80;;;;;;481534;247;1104;-51
2022/08/06 05:10:13;;;;;;;;;;;22.30;48.70;;;;;;482626;247;1014;-51
2022/08/06 05:12:14;;;;;;;;;;;22.30;48.80;;;;;;482426;247;1154;-51
2022/08/06 05:14:15;;;;;;;;;;;22.30;48.80;;;;;;482252;247;1205;-51
2022/08/06 05:16:17;;;;;;;;;;;22.30;48.80;;;;;;481646;247;1387;-52
2022/08/06 05:18:18;;;;;;;;;;;22.30;48.90;;;;;;482619;247;1274;-51
2022/08/06 05:20:20;;;;;;;;;;;22.30;48.90;;;;;;482588;247;2105;-51
2022/08/06 05:22:21;;;;;;;;;;;22.30;48.90;;;;;;482172;247;1308;-51
2022/08/06 05:24:22;;;;;;;;;;;22.30;48.90;;;;;;482329;247;1067;-51
2022/08/06 05:26:24;;;;;;;;;;;22.30;48.90;;;;;;482608;247;1109;-51
2022/08/06 05:28:25;;;;;;;;;;;22.30;48.90;;;;;;482292;247;1142;-51
2022/08/06 05:30:26;;;;;;;;;;;22.30;48.90;;;;;;482179;247;1284;-51
2022/08/06 05:32:28;;;;;;;;;;;22.30;48.80;;;;;;482276;246;1228;-51
2022/08/06 05:34:29;;;;;;;;;;;22.30;48.80;;;;;;482694;246;1254;-51
2022/08/06 05:36:30;;;;;;;;;;;22.30;48.90;;;;;;482387;247;1196;-50
2022/08/06 05:38:32;;;;;;;;;;;22.30;48.80;;;;;;482169;247;1199;-51
2022/08/06 05:40:36;;;;;;;;;;;22.30;48.80;;;;;;482376;247;2133;-52
2022/08/06 05:42:37;;;;;;;;;;;22.30;48.80;;;;;;482166;247;1183;-51
2022/08/06 05:44:39;;;;;;;;;;;22.30;48.80;;;;;;482141;247;1232;-51
2022/08/06 05:46:40;;;;;;;;;;;22.30;48.80;;;;;;482518;247;1319;-51
2022/08/06 05:48:41;;;;;;;;;;;22.30;48.80;;;;;;482464;247;1308;-51
2022/08/06 05:50:42;;;;;;;;;;;22.30;48.80;;;;;;481778;247;1282;-51
2022/08/06 05:52:44;;;;;;;;;;;22.30;48.80;;;;;;482253;247;1150;-51
2022/08/06 05:54:45;;;;;;;;;;;22.30;48.90;;;;;;482152;247;1295;-50
2022/08/06 05:56:46;;;;;;;;;;;22.30;48.90;;;;;;482304;247;1380;-51
2022/08/06 05:58:49;;;;;;;;;;;22.30;48.90;;;;;;482392;247;1278;-51
2022/08/06 06:00:50;;;;;;;;;;;22.30;48.80;;;;;;481679;247;2196;-52
2022/08/06 06:02:51;;;;;;;;;;;22.30;48.90;;;;;;482097;247;1338;-51
2022/08/06 06:04:52;;;;;;;;;;;22.30;48.80;;;;;;482313;247;1166;-51
2022/08/06 06:06:54;;;;;;;;;;;22.30;48.90;;;;;;482401;247;1227;-51
2022/08/06 06:08:55;;;;;;;;;;;22.30;48.80;;;;;;482129;247;1175;-50
2022/08/06 06:10:56;;;;;;;;;;;22.40;48.90;;;;;;482346;247;1170;-51
2022/08/06 06:12:58;;;;;;;;;;;22.40;48.90;;;;;;482463;247;1221;-51
2022/08/06 06:14:59;;;;;;;;;;;22.30;48.80;;;;;;482163;247;1245;-50
2022/08/06 06:17:00;;;;;;;;;;;22.40;48.90;;;;;;482126;247;1080;-50
2022/08/06 06:19:02;;;;;;;;;;;22.30;48.90;;;;;;482420;247;1045;-51
2022/08/06 06:21:03;;;;;;;;;;;22.30;48.90;;;;;;482101;247;2126;-51
2022/08/06 06:23:06;;;;;;;;;;;22.30;48.90;;;;;;482092;247;1100;-51
2022/08/06 06:25:06;;;;;;;;;;;22.30;48.90;;;;;;481929;247;2247;-50
2022/08/06 06:27:07;;;;;;;;;;;22.30;49.00;;;;;;482295;247;1079;-52
2022/08/06 06:29:09;;;;;;;;;;;22.30;48.90;;;;;;482164;247;1077;-51
2022/08/06 06:31:10;;;;;;;;;;;22.30;48.90;;;;;;481831;247;1088;-51
2022/08/06 06:33:13;;;;;;;;;;;22.30;48.90;;;;;;482318;247;1017;-50
2022/08/06 06:35:13;;;;;;;;;;;22.30;49.00;;;;;;482220;247;2046;-51
2022/08/06 06:37:14;;;;;;;;;;;22.30;49.00;;;;;;482554;247;1171;-51
2022/08/06 06:39:15;;;;;;;;;;;22.30;49.00;;;;;;482430;247;1123;-51
2022/08/06 06:41:17;;;;;;;;;;;22.30;49.00;;;;;;482139;247;2196;-51
2022/08/06 06:43:18;;;;;;;;;;;22.30;49.10;;;;;;482225;247;1069;-51
2022/08/06 06:45:20;;;;;;;;;;;22.30;49.10;;;;;;476850;247;2008;-51
2022/08/06 06:47:21;;;;;;;;;;;22.30;49.10;;;;;;482421;247;1256;-51
2022/08/06 06:49:22;;;;;;;;;;;22.30;49.20;;;;;;482134;247;1381;-51
2022/08/06 06:51:24;;;;;;;;;;;22.30;49.10;;;;;;482096;247;1171;-51
2022/08/06 06:53:25;;;;;;;;;;;22.30;49.10;;;;;;482167;247;1086;-51
2022/08/06 06:55:26;;;;;;;;;;;22.30;49.20;;;;;;482163;247;1365;-51
2022/08/06 06:57:28;;;;;;;;;;;22.30;49.20;;;;;;482426;247;1208;-51
2022/08/06 06:59:29;;;;;;;;;;;22.30;49.10;;;;;;482162;247;1093;-51
2022/08/06 07:01:32;;;;;;;;;;;22.30;49.10;;;;;;482238;247;2122;-51
2022/08/06 07:03:33;;;;;;;;;;;22.30;49.10;;;;;;481774;247;2320;-51
2022/08/06 07:05:35;;;;;;;;;;;22.30;49.10;;;;;;482133;247;1133;-52
2022/08/06 07:07:36;;;;;;;;;;;22.30;49.10;;;;;;482139;247;1438;-51
2022/08/06 07:09:37;;;;;;;;;;;22.30;49.20;;;;;;482170;247;1202;-51
2022/08/06 07:11:38;;;;;;;;;;;22.30;49.20;;;;;;482188;247;1060;-51
2022/08/06 07:13:40;;;;;;;;;;;22.30;49.30;;;;;;482633;247;1038;-49
2022/08/06 07:15:41;;;;;;;;;;;22.30;49.30;;;;;;482207;247;1156;-51
2022/08/06 07:17:42;;;;;;;;;;;22.30;49.30;;;;;;482202;247;1179;-51
2022/08/06 07:19:45;;;;;;;;;;;22.30;49.30;;;;;;482265;247;1030;-50
2022/08/06 07:21:45;;;;;;;;;;;22.30;49.20;;;;;;481930;247;2205;-51
2022/08/06 07:23:48;;;;;;;;;;;22.30;49.30;;;;;;482619;247;1263;-51
2022/08/06 07:25:48;;;;;;;;;;;22.30;49.20;;;;;;482527;247;1404;-51
2022/08/06 07:27:49;;;;;;;;;;;22.30;49.20;;;;;;482597;247;1214;-51
2022/08/06 07:29:51;;;;;;;;;;;22.30;49.20;;;;;;482148;247;1207;-51
2022/08/06 07:31:52;;;;;;;;;;;22.30;49.30;;;;;;482274;246;1192;-51
2022/08/06 07:33:53;;;;;;;;;;;22.20;49.20;;;;;;482354;247;1211;-51
2022/08/06 07:35:55;;;;;;;;;;;22.30;49.30;;;;;;482263;247;1111;-51
2022/08/06 07:37:56;;;;;;;;;;;22.30;49.30;;;;;;482289;247;963;-51
2022/08/06 07:39:57;;;;;;;;;;;22.20;49.30;;;;;;482260;247;1077;-51
2022/08/06 07:41:59;;;;;;;;;;;22.30;49.30;;;;;;482548;247;2184;-51
2022/08/06 07:44:00;;;;;;;;;;;22.30;49.30;;;;;;482111;247;1158;-51
2022/08/06 07:46:01;;;;;;;;;;;22.20;49.30;;;;;;482164;247;1222;-51
2022/08/06 07:48:02;;;;;;;;;;;22.20;49.30;;;;;;482643;246;1206;-51
2022/08/06 07:50:04;;;;;;;;;;;22.20;49.30;;;;;;482507;247;1354;-51
2022/08/06 07:52:05;;;;;;;;;;;22.30;49.30;;;;;;482630;247;1288;-51
2022/08/06 07:54:07;;;;;;;;;;;22.30;49.30;;;;;;482174;247;1423;-51
2022/08/06 07:56:08;;;;;;;;;;;22.30;49.30;;;;;;482602;247;1124;-50
2022/08/06 07:58:09;;;;;;;;;;;22.30;49.30;;;;;;482393;247;1203;-50
2022/08/06 08:00:11;;;;;;;;;;;22.30;49.40;;;;;;482385;247;1572;-51
2022/08/06 08:02:12;;;;;;;;;;;22.20;49.30;;;;;;482191;247;2125;-51
2022/08/06 08:06:32;;;;;;;;;;;22.30;49.30;;;;;;481382;247;1075;-51
2022/08/06 08:08:34;;;;;;;;;;;22.30;49.30;;;;;;481243;248;1095;-51
2022/08/06 08:10:35;;;;;;;;;;;22.20;49.30;;;;;;481438;248;1230;-51
2022/08/06 08:12:36;;;;;;;;;;;22.20;49.40;;;;;;482263;247;1043;-51
2022/08/06 08:14:38;;;;;;;;;;;22.20;49.40;;;;;;482168;247;1316;-52
2022/08/06 08:16:40;;;;;;;;;;;22.20;49.40;;;;;;482172;247;1016;-52
2022/08/06 08:18:42;;;;;;;;;;;22.20;49.40;;;;;;482231;247;1138;-51
2022/08/06 08:20:43;;;;;;;;;;;22.20;49.40;;;;;;482346;247;2122;-51
2022/08/06 08:22:44;;;;;;;;;;;22.30;49.40;;;;;;482590;247;1387;-51
2022/08/06 08:24:46;;;;;;;;;;;22.20;49.40;;;;;;482466;247;1064;-51
2022/08/06 08:26:47;;;;;;;;;;;22.20;49.30;;;;;;482542;247;1078;-51
2022/08/06 08:28:48;;;;;;;;;;;22.20;49.40;;;;;;482170;247;1046;-51
2022/08/06 08:30:49;;;;;;;;;;;22.20;49.40;;;;;;482182;247;1180;-51
2022/08/06 08:32:51;;;;;;;;;;;22.20;49.40;;;;;;482262;247;1067;-50
2022/08/06 08:34:52;;;;;;;;;;;22.30;49.40;;;;;;482615;247;1039;-51
2022/08/06 08:36:54;;;;;;;;;;;22.30;49.50;;;;;;482273;247;1039;-51
2022/08/06 08:38:57;;;;;;;;;;;22.20;49.40;;;;;;482565;247;1106;-51
2022/08/06 08:40:57;;;;;;;;;;;22.20;49.40;;;;;;482192;247;2388;-51
2022/08/06 08:42:58;;;;;;;;;;;22.20;49.40;;;;;;482169;247;1145;-51
2022/08/06 08:44:59;;;;;;;;;;;22.20;49.50;;;;;;481096;247;1284;-51
2022/08/06 08:47:01;;;;;;;;;;;22.20;49.40;;;;;;471789;252;1036;-51
2022/08/06 08:49:02;;;;;;;;;;;22.30;49.50;;;;;;472234;252;1112;-51
2022/08/06 08:51:04;;;;;;;;;;;22.20;49.40;;;;;;471710;252;1046;-51
2022/08/06 08:53:05;;;;;;;;;;;22.20;49.40;;;;;;478103;247;1096;-52
2022/08/06 08:55:07;;;;;;;;;;;22.30;49.40;;;;;;482122;247;1055;-52
2022/08/06 08:57:09;;;;;;;;;;;22.30;49.40;;;;;;482086;247;1116;-51
2022/08/06 08:59:10;;;;;;;;;;;22.30;49.40;;;;;;482143;247;997;-51
2022/08/06 09:01:11;;;;;;;;;;;22.20;49.40;;;;;;482266;247;2145;-51
2022/08/06 09:03:13;;;;;;;;;;;22.20;49.50;;;;;;482112;247;1150;-52
2022/08/06 09:05:14;;;;;;;;;;;22.20;49.50;;;;;;482395;247;1030;-51
2022/08/06 09:07:15;;;;;;;;;;;22.20;49.40;;;;;;482143;247;1043;-51
2022/08/06 09:09:17;;;;;;;;;;;22.20;49.40;;;;;;482549;247;1072;-51
2022/08/06 09:11:18;;;;;;;;;;;22.20;49.40;;;;;;482102;247;1054;-51
2022/08/06 09:13:19;;;;;;;;;;;22.20;49.40;;;;;;482146;247;1040;-52
2022/08/06 09:15:21;;;;;;;;;;;22.30;49.40;;;;;;481228;247;1306;-51
2022/08/06 09:17:23;;;;;;;;;;;22.30;49.40;;;;;;471265;252;1056;-51
2022/08/06 09:19:23;;;;;;;;;;;22.30;49.40;;;;;;477526;247;2401;-51
2022/08/06 09:21:25;;;;;;;;;;;22.30;49.30;;;;;;482288;247;2189;-51
2022/08/06 09:23:26;;;;;;;;;;;22.30;49.40;;;;;;482123;247;1063;-51
2022/08/06 09:25:27;;;;;;;;;;;22.30;49.40;;;;;;482288;247;1131;-51
2022/08/06 09:27:29;;;;;;;;;;;22.30;49.40;;;;;;482027;247;1064;-51
2022/08/06 09:29:30;;;;;;;;;;;22.30;49.30;;;;;;482031;247;1070;-51
2022/08/06 09:31:31;;;;;;;;;;;22.20;49.40;;;;;;482025;246;1199;-51
2022/08/06 09:33:33;;;;;;;;;;;22.30;49.40;;;;;;482377;247;1085;-51
2022/08/06 09:35:34;;;;;;;;;;;22.30;49.30;;;;;;482182;247;1064;-51
2022/08/06 09:37:35;;;;;;;;;;;22.30;49.40;;;;;;482275;247;1049;-51
2022/08/06 09:39:39;;;;;;;;;;;22.30;49.40;;;;;;482458;246;1065;-51
2022/08/06 09:41:38;;;;;;;;;;;22.30;49.40;;;;;;482148;247;2131;-51
2022/08/06 09:43:39;;;;;;;;;;;22.30;49.30;;;;;;482439;247;1102;-52
2022/08/06 09:45:41;;;;;;;;;;;22.30;49.40;;;;;;481139;247;1300;-51
2022/08/06 09:47:42;;;;;;;;;;;22.30;49.30;;;;;;471214;252;1086;-51
2022/08/06 09:49:43;;;;;;;;;;;22.30;49.30;;;;;;470901;251;1048;-51
2022/08/06 09:51:45;;;;;;;;;;;22.30;49.30;;;;;;477900;247;1461;-51
2022/08/06 09:53:46;;;;;;;;;;;22.30;49.30;;;;;;482076;247;1081;-51
2022/08/06 09:55:47;;;;;;;;;;;22.30;49.40;;;;;;482237;247;1244;-51
2022/08/06 09:57:49;;;;;;;;;;;22.30;49.40;;;;;;482099;247;1101;-52
2022/08/06 09:59:50;;;;;;;;;;;22.30;49.40;;;;;;482454;247;1167;-51
2022/08/06 10:01:51;;;;;;;;;;;22.30;49.30;;;;;;475816;247;2159;-51
2022/08/06 10:03:53;;;;;;;;;;;22.30;49.40;;;;;;471828;247;1215;-51
2022/08/06 10:05:54;;;;;;;;;;;22.30;49.40;;;;;;482327;247;1278;-51
2022/08/06 10:07:55;;;;;;;;;;;22.30;49.40;;;;;;482460;247;1405;-51
2022/08/06 10:09:57;;;;;;;;;;;22.30;49.50;;;;;;482123;247;1280;-52
2022/08/06 10:11:58;;;;;;;;;;;22.30;49.40;;;;;;482067;247;1251;-51
2022/08/06 10:13:59;;;;;;;;;;;22.30;49.50;;;;;;482127;247;1259;-50
2022/08/06 10:16:01;;;;;;;;;;;22.30;49.50;;;;;;481510;247;1247;-52
2022/08/06 10:18:02;;;;;;;;;;;22.30;49.50;;;;;;472079;247;1237;-51
2022/08/06 10:20:03;;;;;;;;;;;22.30;49.50;;;;;;482086;247;1064;-50
2022/08/06 10:22:05;;;;;;;;;;;22.30;49.50;;;;;;482545;247;2126;-51
2022/08/06 10:24:06;;;;;;;;;;;22.30;49.50;;;;;;482535;246;1156;-50
2022/08/06 10:26:07;;;;;;;;;;;22.30;49.50;;;;;;482514;247;1342;-51
2022/08/06 10:28:09;;;;;;;;;;;22.30;49.60;;;;;;482546;247;1134;-52
2022/08/06 10:30:10;;;;;;;;;;;22.30;49.60;;;;;;482384;247;1063;-51
2022/08/06 10:32:12;;;;;;;;;;;22.30;49.60;;;;;;482093;247;1235;-51
2022/08/06 10:34:13;;;;;;;;;;;22.20;49.50;;;;;;482460;247;1101;-51
2022/08/06 10:36:14;;;;;;;;;;;22.30;49.60;;;;;;482163;247;1069;-51
2022/08/06 10:38:16;;;;;;;;;;;22.30;49.60;;;;;;482400;247;1091;-52
2022/08/06 10:40:17;;;;;;;;;;;22.30;49.60;;;;;;482056;247;1053;-50
2022/08/06 10:42:18;;;;;;;;;;;22.30;49.60;;;;;;482012;247;2197;-51
2022/08/06 10:44:20;;;;;;;;;;;22.30;49.60;;;;;;481702;247;1163;-51
2022/08/06 10:46:21;;;;;;;;;;;22.30;49.60;;;;;;482321;247;1161;-51
2022/08/06 10:48:23;;;;;;;;;;;22.30;49.60;;;;;;482332;247;1284;-52
2022/08/06 10:50:24;;;;;;;;;;;22.20;49.60;;;;;;482179;247;1526;-52
2022/08/06 10:52:25;;;;;;;;;;;22.30;49.60;;;;;;482399;247;1223;-51
2022/08/06 10:54:26;;;;;;;;;;;22.20;49.60;;;;;;482174;247;1043;-51
2022/08/06 10:56:28;;;;;;;;;;;22.20;49.60;;;;;;482253;247;1051;-51
2022/08/06 10:58:30;;;;;;;;;;;22.20;49.70;;;;;;482615;247;1061;-51
2022/08/06 11:00:31;;;;;;;;;;;22.20;49.60;;;;;;482523;246;1117;-52
2022/08/06 11:02:32;;;;;;;;;;;22.20;49.60;;;;;;482315;247;2193;-51
2022/08/06 11:04:34;;;;;;;;;;;22.30;49.60;;;;;;482208;247;1074;-51
2022/08/06 11:06:35;;;;;;;;;;;22.30;49.60;;;;;;482119;247;1062;-51
2022/08/06 11:08:36;;;;;;;;;;;22.30;49.50;;;;;;482518;247;1118;-51
2022/08/06 11:10:38;;;;;;;;;;;22.30;49.50;;;;;;481869;247;1155;-51
2022/08/06 11:12:39;;;;;;;;;;;22.30;49.50;;;;;;482312;247;1185;-51
2022/08/06 11:14:40;;;;;;;;;;;22.30;49.50;;;;;;482244;247;1063;-51
2022/08/06 11:16:42;;;;;;;;;;;22.30;49.50;;;;;;481734;247;1157;-51
2022/08/06 11:18:43;;;;;;;;;;;22.30;49.50;;;;;;482141;247;1092;-51
2022/08/06 11:20:44;;;;;;;;;;;22.30;49.40;;;;;;482560;247;1082;-51
2022/08/06 11:22:46;;;;;;;;;;;22.30;49.50;;;;;;482289;246;2125;-51
2022/08/06 11:24:47;;;;;;;;;;;22.30;49.50;;;;;;481140;247;1042;-51
2022/08/06 11:26:48;;;;;;;;;;;22.30;49.50;;;;;;482412;247;1174;-51
2022/08/06 11:28:50;;;;;;;;;;;22.30;49.50;;;;;;482258;247;1247;-51
2022/08/06 11:30:51;;;;;;;;;;;22.30;49.50;;;;;;481876;247;1276;-46
2022/08/06 11:32:52;;;;;;;;;;;22.30;49.60;;;;;;482308;247;1239;-50
2022/08/06 11:34:54;;;;;;;;;;;22.30;49.50;;;;;;482553;247;1243;-50
2022/08/06 11:36:56;;;;;;;;;;;22.30;49.50;;;;;;482329;246;1246;-51
2022/08/06 11:38:56;;;;;;;;;;;22.30;49.50;;;;;;482214;247;1260;-51
2022/08/06 11:40:58;;;;;;;;;;;22.30;49.50;;;;;;482512;247;1260;-50
2022/08/06 11:42:59;;;;;;;;;;;22.30;49.50;;;;;;481906;247;2196;-50
2022/08/06 11:45:01;;;;;;;;;;;22.30;49.50;;;;;;482139;247;1262;-50
2022/08/06 11:47:02;;;;;;;;;;;22.30;49.50;;;;;;482118;247;1161;-51
2022/08/06 11:49:04;;;;;;;;;;;22.30;49.50;;;;;;482142;247;1073;-50
2022/08/06 11:51:05;;;;;;;;;;;22.30;49.50;;;;;;482432;246;1054;-51
2022/08/06 11:53:06;;;;;;;;;;;22.40;49.50;;;;;;482606;247;1078;-50
2022/08/06 11:55:08;;;;;;;;;;;22.30;49.40;;;;;;482455;247;1065;-51
2022/08/06 11:57:09;;;;;;;;;;;22.30;49.50;;;;;;482608;247;1143;-51
2022/08/06 11:59:10;;;;;;;;;;;22.30;49.50;;;;;;482580;247;1106;-51